Flight Track Log - Related Links

Times and Time Zones

All times are in EDT time to prevent confusion due to time zone crossing. See the JIA2382 flight status page for this flight to view local times or setup timezone preferences in your user account.

Time Position Orientation Groundspeed Altitude Reporting Facility
EDT Latitude Longitude Course Direction KTS MPH feet Rate Location/Type
Wed 09:26:30 AM 35.1908 -80.9356 72° East 165 190 1,700  Level Atlanta Center
Wed 09:27:13 AM 35.1553 -80.9294 172° South 187 215 3,000 2,135 Climbing Atlanta Center
Wed 09:28:14 AM 35.0994 -80.8756 142° Southeast 264 304 5,400 2,317 Climbing Atlanta Center
Wed 09:28:54 AM 35.0836 -80.8206 109° East 277 319 6,900 960 Climbing Atlanta Center
Wed 09:29:00 AM 35.1413 -80.6058 29° Northeast  Level FlightAware Approximate
Wed 09:29:54 AM 35.1189 -80.7353 63° Northeast 283 326 7,000  Level Atlanta Center
Wed 09:30:00 AM 35.2469 -80.5332 30° Northeast  Level FlightAware Approximate
Wed 09:30:54 AM 35.1586 -80.6600 57° Northeast 297 342 8,800  Level Atlanta Center
Wed 09:31:00 AM 35.3365 -80.4548 72° East  Level FlightAware Approximate
Wed 09:31:54 AM 35.2061 -80.5717 57° Northeast 336 387 10,900  Level Atlanta Center
Wed 09:33:54 AM 35.3131 -80.3736 56° Northeast 345 397 14,900 1,833 Climbing Atlanta Center
Wed 09:34:54 AM 35.3683 -80.2694 57° Northeast 356 410 16,400 1,500 Climbing Atlanta Center
Wed 09:35:54 AM 35.4233 -80.1650 57° Northeast 356 410 17,900 1,361 Climbing Atlanta Center
Wed 09:36:31 AM 35.4478 -80.0819 70° East 354 407 18,600 980 Climbing Washington Center
Wed 09:37:32 AM 35.4747 -79.9814 72° East 366 421 19,500 1,059 Climbing Washington Center
Wed 09:38:30 AM 35.5136 -79.8253 73° East 382 440 20,700 1,119 Climbing Washington Center
Wed 09:39:30 AM 35.5450 -79.6994 73° East 387 445 21,700 984 Climbing Washington Center
Wed 09:40:32 AM 35.5561 -79.5622 84° East 392 451 22,700 639 Climbing Washington Center
Wed 09:41:32 AM 35.5606 -79.4219 88° East 397 457 23,000 153 Climbing Washington Center
Wed 09:42:30 AM 35.5692 -79.2819 86° East 409 471 23,000  Level Washington Center
Wed 09:43:31 AM 35.5756 -79.1417 87° East 409 471 23,000  Level Washington Center
Wed 09:44:32 AM 35.5797 -78.9989 88° East 409 471 23,000 -50 Level Washington Center
Wed 09:45:30 AM 35.5858 -78.8561 87° East 409 471 22,900 -814 Descending Washington Center
Wed 09:46:30 AM 35.5894 -78.7133 88° East 417 480 21,400 -1,721 Descending Washington Center
Wed 09:47:32 AM 35.5953 -78.5756 87° East 407 468 19,400 -1,770 Descending Washington Center
Wed 09:48:32 AM 35.6003 -78.4583 87° East 393 452 17,800 -1,600 Descending Washington Center
Wed 09:49:32 AM 35.6072 -78.3281 86° East 382 440 16,200 2,644 Descending Washington Center
Wed 09:50:30 AM 35.6122 -78.2031 87° East 377 434 23,000 -2,136 Climbing Washington Center
Wed 09:51:30 AM 35.6147 -78.0831 88° East 366 421 12,000 -6,393 Descending Washington Center
Wed 09:52:32 AM 35.6192 -77.9708 87° East 342 394 10,000 -1,918 Descending Washington Center
Wed 09:53:32 AM 35.6211 -77.8636 89° East 324 373 8,100 -1,966 Descending Washington Center
Wed 09:54:31 AM 35.6250 -77.7692 87° East 295 339 6,100 -1,916 Descending Washington Center
Wed 09:55:31 AM 35.6267 -77.6772 89° East 274 315 4,300 -1,686 Descending Washington Center
Wed 09:56:32 AM 35.6197 -77.5928 96° East 259 298 2,700 -1,169 Descending Washington Center
Wed 09:57:29 AM 35.6022 -77.5208 107° East 236 272 2,000 -600 Descending Washington Center
Wed 09:58:42 AM 35.5886 -77.4642 106° East 202 232 1,400 -448 Descending Washington Center
Wed 09:59:43 AM 35.5833 -77.4028 96° East 172 198 1,000 -248 Descending Washington Center
Wed 10:00:43 AM 35.5717 -77.3411 103° East 162 186 900 -100 Descending Washington Center

Login

Don't have an account? Register now (free) for customized features, flight alerts, and more!